Dianalund, Denmark
Current Conditions -  °F | °C
As of 5:50 PM on Saturday 25 Oct 2014 (Local Time) from EKRK Reporting Station
Moderate Fog Moderate Fog  
Wind Chill: 52°   Ceiling: 200
Heat Index: 52°   Visibility: 0.46mi
Dew Point: 52°   Wind: 8mph
Humidity: 100%   Direction: 190°S
Pressure: 30"   Gusts: NA
Location:  55.53°N, 11.49°E
Report Text: EKRK 251550Z AUTO 19007KT 0750NDV R11/P1500U R29/P1500NFG VV002 11/11 Q1016
Loading
Personal Weather Stations






























Interactive Weather Map
Tropical Storm Tracking
New forecast layout! Learn more

10-Day Weather Forecast

Advertisements
Track Severe Weather on mobile